createdAt,value
2018-03-26T00:00:37.149Z,14.9
2018-03-26T00:01:27.876Z,14.9
2018-03-26T00:02:17.462Z,14.9
2018-03-26T00:03:07.708Z,14.9
2018-03-26T00:03:56.764Z,14.9
2018-03-26T00:04:47.117Z,14.9
2018-03-26T00:05:37.992Z,14.9
2018-03-26T00:06:27.754Z,14.9
2018-03-26T00:07:18.789Z,14.9
2018-03-26T00:08:07.237Z,14.9
2018-03-26T00:08:57.911Z,14.9
2018-03-26T00:09:48.647Z,14.9
2018-03-26T00:10:38.387Z,14.9
2018-03-26T00:11:29.057Z,14.9
2018-03-26T00:12:18.201Z,14.9
2018-03-26T00:13:07.924Z,14.9
2018-03-26T00:13:58.318Z,14.9
2018-03-26T00:14:49.348Z,14.9
2018-03-26T00:15:38.810Z,14.9
2018-03-26T00:16:27.468Z,14.9
2018-03-26T00:17:18.268Z,14.9
2018-03-26T00:18:07.843Z,14.9
2018-03-26T00:18:58.751Z,14.9
2018-03-26T00:19:46.714Z,14.9
2018-03-26T00:20:36.881Z,14.9
2018-03-26T00:21:27.371Z,14.9
2018-03-26T00:22:18.632Z,14.9
2018-03-26T00:23:07.958Z,14.9
2018-03-26T00:23:58.234Z,14.9
2018-03-26T00:24:48.440Z,14.9
2018-03-26T00:25:38.520Z,14.9
2018-03-26T00:26:29.448Z,14.9
2018-03-26T00:27:18.467Z,14.9
2018-03-26T00:28:08.568Z,14.9
2018-03-26T00:28:58.492Z,14.9
2018-03-26T00:29:48.077Z,14.9
2018-03-26T00:30:38.380Z,14.9
2018-03-26T00:31:28.176Z,14.9
2018-03-26T00:32:18.144Z,15
2018-03-26T00:33:08.625Z,15
2018-03-26T00:34:00.068Z,15
2018-03-26T00:34:48.526Z,15
2018-03-26T00:35:38.104Z,15
2018-03-26T00:36:28.503Z,15
2018-03-26T00:37:19.342Z,15
2018-03-26T00:38:09.049Z,15
2018-03-26T00:38:57.830Z,15
2018-03-26T00:39:49.677Z,15
2018-03-26T00:40:39.445Z,15
2018-03-26T00:41:29.592Z,15
2018-03-26T00:42:20.572Z,15
2018-03-26T00:43:10.067Z,15
2018-03-26T00:43:59.445Z,15
2018-03-26T00:44:49.402Z,15
2018-03-26T00:45:39.949Z,15
2018-03-26T00:46:30.937Z,15
2018-03-26T00:47:20.619Z,15.1
2018-03-26T00:48:11.767Z,15
2018-03-26T00:49:02.091Z,15.1
2018-03-26T00:49:51.949Z,15
2018-03-26T00:50:42.009Z,15
2018-03-26T00:51:31.311Z,15.1
2018-03-26T00:52:21.885Z,15.1
2018-03-26T00:53:11.412Z,15.1
2018-03-26T00:54:01.388Z,15
2018-03-26T00:54:50.998Z,15
2018-03-26T00:55:41.501Z,15.1
2018-03-26T00:56:32.156Z,15.1
2018-03-26T00:57:21.597Z,15.1
2018-03-26T00:58:11.706Z,15
2018-03-26T00:59:02.318Z,15
2018-03-26T00:59:51.555Z,15
2018-03-26T01:00:41.593Z,15
2018-03-26T01:01:32.091Z,15
2018-03-26T01:02:21.974Z,15
2018-03-26T01:03:12.242Z,15
2018-03-26T01:04:02.281Z,15
2018-03-26T01:04:52.969Z,15
2018-03-26T01:05:42.584Z,15
2018-03-26T01:06:33.032Z,15
2018-03-26T01:07:23.126Z,15
2018-03-26T01:08:13.200Z,15
2018-03-26T01:09:02.394Z,15
2018-03-26T01:09:53.001Z,14.9
2018-03-26T01:10:43.361Z,14.9
2018-03-26T01:11:32.806Z,14.9
2018-03-26T01:12:22.608Z,14.9
2018-03-26T01:13:13.793Z,14.9
2018-03-26T01:14:03.552Z,14.9
2018-03-26T01:14:52.770Z,14.9
2018-03-26T01:15:42.811Z,14.9
2018-03-26T01:16:33.191Z,14.9
2018-03-26T01:17:23.516Z,14.9
2018-03-26T01:18:11.476Z,14.9
2018-03-26T01:19:01.916Z,14.9
2018-03-26T01:19:51.286Z,14.9
2018-03-26T01:20:42.538Z,14.8
2018-03-26T01:21:32.095Z,14.8
2018-03-26T01:22:22.632Z,14.8
2018-03-26T01:23:12.378Z,14.8
2018-03-26T01:24:02.141Z,14.8
2018-03-26T01:24:52.809Z,14.8
2018-03-26T01:25:43.085Z,14.8
2018-03-26T01:26:32.899Z,14.8
2018-03-26T01:27:22.060Z,14.8
2018-03-26T01:28:13.519Z,14.8
2018-03-26T01:29:03.082Z,14.8
2018-03-26T01:29:53.160Z,14.8
2018-03-26T01:30:42.880Z,14.8
2018-03-26T01:31:33.843Z,14.8
2018-03-26T01:32:22.429Z,14.7
2018-03-26T01:33:12.529Z,14.7
2018-03-26T01:34:03.027Z,14.7
2018-03-26T01:34:53.663Z,14.7
2018-03-26T01:35:43.035Z,14.7
2018-03-26T01:36:33.133Z,14.7
2018-03-26T01:37:24.007Z,14.6
2018-03-26T01:38:13.318Z,14.6
2018-03-26T01:39:03.565Z,14.6
2018-03-26T01:39:53.396Z,14.6
2018-03-26T01:40:43.200Z,14.6
2018-03-26T01:41:33.829Z,14.6
2018-03-26T01:42:24.897Z,14.6
2018-03-26T01:43:14.462Z,14.6
2018-03-26T01:44:04.149Z,14.6
2018-03-26T01:44:54.092Z,14.6
2018-03-26T01:45:44.670Z,14.5
2018-03-26T01:46:33.458Z,14.6
2018-03-26T01:47:23.911Z,14.6
2018-03-26T01:48:14.242Z,14.6
2018-03-26T01:49:04.832Z,14.5
2018-03-26T01:49:54.133Z,14.5
2018-03-26T01:50:43.626Z,14.5
2018-03-26T01:51:34.334Z,14.4
2018-03-26T01:52:24.384Z,14.5
2018-03-26T01:53:14.704Z,14.4
2018-03-26T01:54:04.917Z,14.4
2018-03-26T01:54:54.936Z,14.4
2018-03-26T01:55:44.506Z,14.4
2018-03-26T01:56:35.458Z,14.4
2018-03-26T01:57:23.954Z,14.4
2018-03-26T01:58:14.119Z,14.4
2018-03-26T01:59:05.427Z,14.4
2018-03-26T01:59:55.449Z,14.4
2018-03-26T02:00:46.229Z,14.4
2018-03-26T02:01:36.344Z,14.4
2018-03-26T02:02:24.655Z,14.4
2018-03-26T02:03:14.990Z,14.4
2018-03-26T02:04:04.566Z,14.4
2018-03-26T02:04:54.965Z,14.3
2018-03-26T02:05:45.113Z,14.3
2018-03-26T02:06:36.336Z,14.3
2018-03-26T02:07:24.956Z,14.3
2018-03-26T02:08:14.998Z,14.3
2018-03-26T02:09:05.135Z,14.3
2018-03-26T02:09:55.144Z,14.3
2018-03-26T02:10:46.058Z,14.3
2018-03-26T02:11:35.655Z,14.3
2018-03-26T02:12:25.176Z,14.3
2018-03-26T02:13:15.703Z,14.3
2018-03-26T02:14:04.900Z,14.3
2018-03-26T02:14:55.500Z,14.3
2018-03-26T02:15:45.953Z,14.3
2018-03-26T02:16:35.707Z,14.2
2018-03-26T02:17:26.456Z,14.2
2018-03-26T02:18:15.333Z,14.2
2018-03-26T02:19:06.762Z,14.2
2018-03-26T02:19:55.658Z,14.2
2018-03-26T02:20:47.132Z,14.2
2018-03-26T02:21:36.766Z,14.1
2018-03-26T02:22:25.044Z,14.1
2018-03-26T02:23:15.509Z,14.1
2018-03-26T02:24:06.917Z,14.1
2018-03-26T02:24:56.331Z,14.1
2018-03-26T02:25:46.562Z,14.1
2018-03-26T02:26:35.730Z,14.1
2018-03-26T02:27:25.957Z,14.1
2018-03-26T02:28:16.059Z,14.1
2018-03-26T02:29:05.700Z,14.1
2018-03-26T02:29:55.754Z,14.1
2018-03-26T02:30:45.938Z,14.1
2018-03-26T02:31:36.288Z,14.1
2018-03-26T02:32:27.237Z,14
2018-03-26T02:33:15.931Z,14
2018-03-26T02:34:06.072Z,14
2018-03-26T02:34:57.013Z,14
2018-03-26T02:35:46.261Z,14
2018-03-26T02:36:37.643Z,14
2018-03-26T02:37:25.702Z,14
2018-03-26T02:38:18.322Z,13.9
2018-03-26T02:39:07.640Z,14
2018-03-26T02:39:57.732Z,13.9
2018-03-26T02:40:47.633Z,13.9
2018-03-26T02:41:37.464Z,13.9
2018-03-26T02:42:28.306Z,13.9
2018-03-26T02:43:17.888Z,13.9
2018-03-26T02:44:08.411Z,13.9
2018-03-26T02:44:58.288Z,13.9
2018-03-26T02:45:47.547Z,13.9
2018-03-26T02:46:37.910Z,13.9
2018-03-26T02:47:28.082Z,13.9
2018-03-26T02:48:19.909Z,13.9
2018-03-26T02:49:07.574Z,13.9
2018-03-26T02:49:58.563Z,13.9
2018-03-26T02:50:49.981Z,13.9
2018-03-26T02:51:39.163Z,13.9
2018-03-26T02:52:28.603Z,13.9
2018-03-26T02:53:17.454Z,13.9
2018-03-26T02:54:08.625Z,13.8
2018-03-26T02:54:59.115Z,13.8
2018-03-26T02:55:46.768Z,13.8
2018-03-26T02:56:39.730Z,13.8
2018-03-26T02:57:28.553Z,13.8
2018-03-26T02:58:18.271Z,13.8
2018-03-26T02:59:08.957Z,13.8
2018-03-26T02:59:59.617Z,13.8
2018-03-26T03:00:49.370Z,13.8
2018-03-26T03:01:38.434Z,13.8
2018-03-26T03:02:29.500Z,13.8
2018-03-26T03:03:21.308Z,13.8
2018-03-26T03:04:10.585Z,13.8
2018-03-26T03:05:00.294Z,13.8
2018-03-26T03:05:50.667Z,13.7
2018-03-26T03:06:40.142Z,13.8
2018-03-26T03:07:30.764Z,13.8
2018-03-26T03:08:21.392Z,13.7
2018-03-26T03:09:11.715Z,13.8
2018-03-26T03:10:00.923Z,13.7
2018-03-26T03:10:51.305Z,13.7
2018-03-26T03:11:40.717Z,13.7
2018-03-26T03:12:31.657Z,13.7
2018-03-26T03:13:21.431Z,13.7
2018-03-26T03:14:11.752Z,13.6
2018-03-26T03:15:00.997Z,13.7
2018-03-26T03:15:52.186Z,13.7
2018-03-26T03:16:41.419Z,13.6
2018-03-26T03:17:31.985Z,13.6
2018-03-26T03:18:22.331Z,13.6
2018-03-26T03:19:11.581Z,13.6
2018-03-26T03:20:01.826Z,13.6
2018-03-26T03:20:51.894Z,13.6
2018-03-26T03:21:42.223Z,13.6
2018-03-26T03:22:32.495Z,13.6
2018-03-26T03:23:22.080Z,13.6
2018-03-26T03:24:12.402Z,13.6
2018-03-26T03:25:02.526Z,13.6
2018-03-26T03:25:52.319Z,13.6
2018-03-26T03:26:41.973Z,13.6
2018-03-26T03:27:31.542Z,13.6
2018-03-26T03:28:21.337Z,13.6
2018-03-26T03:29:10.643Z,13.6
2018-03-26T03:30:02.004Z,13.6
2018-03-26T03:30:51.327Z,13.6
2018-03-26T03:31:41.930Z,13.5
2018-03-26T03:32:29.824Z,13.5
2018-03-26T03:33:21.570Z,13.5
2018-03-26T03:34:10.375Z,13.5
2018-03-26T03:35:01.854Z,13.5
2018-03-26T03:35:52.536Z,18.6
2018-03-26T03:36:40.841Z,20.9
2018-03-26T03:37:30.298Z,21.6
2018-03-26T03:38:21.438Z,22.8
2018-03-26T03:39:11.160Z,23.8
2018-03-26T03:40:02.085Z,24.7
2018-03-26T03:40:51.610Z,25.2
2018-03-26T03:41:43.435Z,25.6
2018-03-26T03:42:32.163Z,25.8
2018-03-26T03:43:22.377Z,26.2
2018-03-26T03:44:11.852Z,26.5
2018-03-26T03:45:02.181Z,26.9
2018-03-26T03:45:51.487Z,27.2
2018-03-26T03:46:41.700Z,27.5
2018-03-26T03:47:32.435Z,27.8
2018-03-26T03:48:21.927Z,28.1
2018-03-26T03:49:11.670Z,28.3
2018-03-26T03:50:02.595Z,28.6
2018-03-26T03:50:54.059Z,28.8
2018-03-26T03:51:42.447Z,29.1
2018-03-26T03:52:32.088Z,29.3
2018-03-26T03:53:23.636Z,29.4
2018-03-26T03:54:13.267Z,29.7
2018-03-26T03:55:02.559Z,29.9
2018-03-26T03:55:53.202Z,30.1
2018-03-26T03:56:42.462Z,30.3
2018-03-26T03:57:32.905Z,30.4
2018-03-26T03:58:23.008Z,30.6
2018-03-26T03:59:12.629Z,30.8
2018-03-26T04:00:03.511Z,30.9
2018-03-26T04:00:53.160Z,31.1
2018-03-26T04:01:42.644Z,31.3
2018-03-26T04:02:33.158Z,31.4
2018-03-26T04:03:23.563Z,31.3
2018-03-26T04:04:13.167Z,31.1
2018-03-26T04:05:03.238Z,30.9
2018-03-26T04:05:53.396Z,30.8
2018-03-26T04:06:43.712Z,30.6
2018-03-26T04:07:32.971Z,30.5
2018-03-26T04:08:24.012Z,30.3
2018-03-26T04:09:13.921Z,30.1
2018-03-26T04:10:05.049Z,30
2018-03-26T04:10:52.803Z,29.9
2018-03-26T04:11:42.295Z,29.8
2018-03-26T04:12:34.751Z,29.6
2018-03-26T04:13:24.491Z,27.9
2018-03-26T04:14:13.788Z,27.2
2018-03-26T04:15:05.500Z,26.9
2018-03-26T04:15:53.798Z,26.9
2018-03-26T04:16:44.708Z,27.2
2018-03-26T04:17:34.665Z,27.4
2018-03-26T04:18:25.193Z,27.7
2018-03-26T04:19:13.706Z,27.9
2018-03-26T04:20:04.253Z,28.3
2018-03-26T04:20:54.701Z,28.6
2018-03-26T04:21:45.054Z,28.8
2018-03-26T04:22:34.236Z,29.1
2018-03-26T04:23:23.996Z,29.4
2018-03-26T04:24:15.231Z,29.6
2018-03-26T04:25:05.087Z,29.9
2018-03-26T04:25:55.074Z,30.2
2018-03-26T04:26:45.486Z,30.4
2018-03-26T04:27:34.578Z,30.6
2018-03-26T04:28:25.210Z,30.8
2018-03-26T04:29:14.169Z,31.1
2018-03-26T04:30:04.447Z,31.3
2018-03-26T04:30:56.344Z,31.4
2018-03-26T04:31:46.186Z,31.4
2018-03-26T04:32:35.693Z,31.2
2018-03-26T04:33:26.668Z,31
2018-03-26T04:34:15.705Z,30.8
2018-03-26T04:35:06.044Z,30.7
2018-03-26T04:35:55.040Z,30.5
2018-03-26T04:36:46.191Z,30.4
2018-03-26T04:37:36.143Z,30.3
2018-03-26T04:38:26.085Z,30.1
2018-03-26T04:39:15.868Z,29.9
2018-03-26T04:40:04.926Z,29.8
2018-03-26T04:40:56.856Z,29
2018-03-26T04:41:45.931Z,27.9
2018-03-26T04:42:36.181Z,27.3
2018-03-26T04:43:25.940Z,27.1
2018-03-26T04:44:15.778Z,27.1
2018-03-26T04:45:05.410Z,27.3
2018-03-26T04:45:56.408Z,27.6
2018-03-26T04:47:37.522Z,28.1
2018-03-26T04:48:26.048Z,28.4
2018-03-26T04:49:16.662Z,28.8
2018-03-26T04:50:07.007Z,29.1
2018-03-26T04:50:55.854Z,29.3
2018-03-26T04:51:46.510Z,29.6
2018-03-26T04:52:36.779Z,29.9
2018-03-26T04:53:26.585Z,30.1
2018-03-26T04:54:16.510Z,30.4
2018-03-26T04:55:06.444Z,30.6
2018-03-26T04:55:58.435Z,30.8
2018-03-26T04:56:46.827Z,31.1
2018-03-26T04:57:36.907Z,31.3
2018-03-26T04:58:27.417Z,31.5
2018-03-26T04:59:17.445Z,31.4
2018-03-26T05:00:07.489Z,31.2
2018-03-26T05:00:56.335Z,31
2018-03-26T05:01:47.382Z,30.9
2018-03-26T05:02:37.762Z,30.7
2018-03-26T05:03:28.137Z,30.6
2018-03-26T05:04:17.921Z,30.4
2018-03-26T05:05:07.227Z,30.3
2018-03-26T05:05:57.064Z,30.1
2018-03-26T05:06:47.519Z,29.9
2018-03-26T05:07:37.579Z,29.8
2018-03-26T05:08:27.734Z,28.4
2018-03-26T05:09:18.367Z,27.8
2018-03-26T05:10:07.857Z,27.3
2018-03-26T05:10:57.027Z,27.2
2018-03-26T05:11:47.962Z,27.2
2018-03-26T05:12:38.167Z,27.4
2018-03-26T05:13:29.248Z,27.6
2018-03-26T05:14:18.662Z,27.9
2018-03-26T05:15:08.629Z,28.2
2018-03-26T05:15:58.948Z,28.6
2018-03-26T05:16:48.180Z,28.8
2018-03-26T20:17:53.896Z,27.2
2018-03-26T20:18:43.074Z,27.6
2018-03-26T20:19:33.236Z,27.9
2018-03-26T20:20:22.883Z,28.2
2018-03-26T20:21:12.057Z,28.6
2018-03-26T20:22:03.272Z,28.9
2018-03-26T20:22:53.046Z,29.3
2018-03-26T20:23:43.095Z,29.7
2018-03-26T20:24:33.498Z,30.1
2018-03-26T20:25:23.453Z,30.4
2018-03-26T20:26:13.589Z,30.8
2018-03-26T20:27:03.669Z,31.1
2018-03-26T20:27:53.731Z,31.2
2018-03-26T20:28:44.028Z,31.1
2018-03-26T20:29:33.754Z,30.9
2018-03-26T20:30:24.101Z,30.7
2018-03-26T20:31:12.123Z,30.6
2018-03-26T20:32:02.357Z,30.4
2018-03-26T20:32:51.256Z,30.3
2018-03-26T20:33:42.706Z,30.1
2018-03-26T20:34:32.348Z,30
2018-03-26T20:35:22.133Z,29.9
2018-03-26T20:36:12.147Z,29.7
2018-03-26T20:37:02.832Z,29.6
2018-03-26T20:37:52.853Z,29.4
2018-03-26T20:38:42.597Z,29.3
2018-03-26T20:39:33.110Z,29.2
2018-03-26T20:40:24.340Z,29
2018-03-26T20:41:14.781Z,28.9
2018-03-26T20:42:05.038Z,28.8
2018-03-26T20:42:54.703Z,28.6
2018-03-26T20:43:45.064Z,27.9
2018-03-26T20:44:34.845Z,27.2
2018-03-26T20:45:25.147Z,27
2018-03-26T20:46:15.043Z,27.1
2018-03-26T20:47:04.467Z,27.4
2018-03-26T20:47:54.469Z,27.6
2018-03-26T20:48:44.839Z,27.9
2018-03-26T20:49:35.306Z,28.4
2018-03-26T20:50:24.960Z,28.7
2018-03-26T20:51:14.757Z,29.1
2018-03-26T20:52:05.409Z,29.4
2018-03-26T20:52:55.719Z,29.8
2018-03-26T20:53:44.965Z,30.2
2018-03-26T20:54:35.763Z,30.5
2018-03-26T20:55:25.284Z,30.8
2018-03-26T20:56:15.951Z,31.1
2018-03-26T20:57:05.644Z,31.2
2018-03-26T20:57:56.044Z,31.1
2018-03-26T20:58:45.829Z,30.9
2018-03-26T20:59:36.124Z,30.8
2018-03-26T21:00:25.882Z,30.6
2018-03-26T21:01:15.702Z,30.4
2018-03-26T21:02:06.323Z,30.3
2018-03-26T21:02:56.089Z,30.1
2018-03-26T21:03:46.113Z,30
2018-03-26T21:04:36.202Z,29.9
2018-03-26T21:05:26.534Z,29.8
2018-03-26T21:06:16.968Z,29.6
2018-03-26T21:07:06.392Z,29.4
2018-03-26T21:07:56.028Z,29.3
2018-03-26T21:08:46.873Z,29.1
2018-03-26T21:09:36.563Z,29
2018-03-26T21:10:25.791Z,28.9
2018-03-26T21:11:16.341Z,28.8
2018-03-26T21:12:06.778Z,28.6
2018-03-26T21:12:56.571Z,28.2
2018-03-26T21:13:47.106Z,27.2
2018-03-26T21:14:36.933Z,26.9
2018-03-26T21:15:26.456Z,27.1
2018-03-26T21:16:16.444Z,27.3
2018-03-26T21:17:06.799Z,27.6
2018-03-26T21:17:56.861Z,27.9
2018-03-26T21:18:46.146Z,28.3
2018-03-26T21:19:37.056Z,28.8
2018-03-26T21:20:27.291Z,29.1
2018-03-26T21:21:17.349Z,29.6
2018-03-26T21:22:06.886Z,29.9
2018-03-26T21:22:56.873Z,30.3
2018-03-26T21:23:46.691Z,30.6
2018-03-26T21:24:37.422Z,31
2018-03-26T21:25:27.371Z,31.3
2018-03-26T21:26:17.183Z,31.1
2018-03-26T21:27:06.910Z,30.9
2018-03-26T21:27:57.776Z,30.8
2018-03-26T21:28:47.629Z,30.7
2018-03-26T21:29:37.685Z,30.5
2018-03-26T21:30:28.086Z,30.4
2018-03-26T21:31:17.746Z,30.2
2018-03-26T21:32:08.817Z,30.1
2018-03-26T21:32:58.154Z,29.9
2018-03-26T21:33:48.229Z,29.8
2018-03-26T21:34:38.044Z,29.6
2018-03-26T21:35:27.489Z,29.5
2018-03-26T21:36:18.072Z,29.4
2018-03-26T21:37:08.420Z,29.2
2018-03-26T21:37:58.506Z,29.1
2018-03-26T21:38:48.291Z,28.9
2018-03-26T21:39:38.861Z,28.8
2018-03-26T21:40:27.917Z,28.7
2018-03-26T21:41:17.200Z,28.4
2018-03-26T21:42:07.253Z,27.3
2018-03-26T21:42:57.621Z,27.1
2018-03-26T21:43:45.805Z,27.1
2018-03-26T21:44:37.940Z,27.3
2018-03-26T21:45:27.623Z,27.6
2018-03-26T21:46:16.455Z,27.9
2018-03-26T21:47:07.267Z,28.3
2018-03-26T21:47:57.544Z,28.8
2018-03-26T21:48:47.597Z,29.1
2018-03-26T21:49:37.713Z,29.6
2018-03-26T21:50:27.670Z,29.9
2018-03-26T21:51:18.132Z,30.3
2018-03-26T21:52:08.302Z,30.7
2018-03-26T21:52:58.165Z,31
2018-03-26T21:53:47.349Z,31.2
2018-03-26T21:54:37.980Z,31.1
2018-03-26T21:55:28.245Z,30.9
2018-03-26T21:56:17.219Z,30.8
2018-03-26T21:57:07.148Z,30.6
2018-03-26T21:57:57.959Z,30.4
2018-03-26T21:58:47.833Z,30.3
2018-03-26T21:59:38.386Z,30.1
2018-03-26T22:00:28.208Z,30
2018-03-26T22:01:17.842Z,29.9
2018-03-26T22:02:08.581Z,29.7
2018-03-26T22:02:59.161Z,29.6
2018-03-26T22:03:47.526Z,29.4
2018-03-26T22:04:38.133Z,29.3
2018-03-26T22:05:29.255Z,29.1
2018-03-26T22:06:18.782Z,29
2018-03-26T22:07:07.995Z,28.9
2018-03-26T22:08:00.042Z,28.8
2018-03-26T22:08:49.445Z,28.6
2018-03-26T22:09:39.245Z,27.9
2018-03-26T22:10:28.553Z,27.2
2018-03-26T22:11:18.940Z,27.1
2018-03-26T22:12:09.105Z,27.2
2018-03-26T22:12:59.051Z,27.4
2018-03-26T22:13:49.718Z,27.7
2018-03-26T22:14:39.273Z,28.1
2018-03-26T22:15:29.503Z,28.4
2018-03-26T22:16:20.168Z,28.8
2018-03-26T22:17:09.370Z,29.3
2018-03-26T22:17:59.977Z,29.6
2018-03-26T22:18:49.947Z,30
2018-03-26T22:19:40.348Z,30.4
2018-03-26T22:20:29.450Z,30.7
2018-03-26T22:21:20.883Z,31
2018-03-26T22:22:10.390Z,31.2
2018-03-26T22:22:58.850Z,31.1
2018-03-26T22:23:49.077Z,30.9
2018-03-26T22:24:40.453Z,30.8
2018-03-26T22:25:29.958Z,30.6
2018-03-26T22:26:20.723Z,30.4
2018-03-26T22:27:10.854Z,30.3
2018-03-26T22:27:59.203Z,30.1
2018-03-26T22:28:50.428Z,30
2018-03-26T22:29:40.107Z,29.8
2018-03-26T22:30:30.989Z,29.7
2018-03-26T22:31:20.466Z,29.6
2018-03-26T22:32:10.952Z,29.4
2018-03-26T22:32:59.962Z,29.3
2018-03-26T22:33:50.854Z,29.1
2018-03-26T22:34:40.234Z,29
2018-03-26T22:35:30.832Z,28.9
2018-03-26T22:36:20.645Z,28.8
2018-03-26T22:37:10.794Z,28.6
2018-03-26T22:38:01.545Z,27.8
2018-03-26T22:38:50.067Z,27.2
2018-03-26T22:39:40.881Z,27.1
2018-03-26T22:40:30.717Z,27.2
2018-03-26T22:41:21.501Z,27.4
2018-03-26T22:42:11.729Z,27.8
2018-03-26T22:43:01.374Z,28.1
2018-03-26T22:43:52.381Z,28.5
2018-03-26T22:44:42.148Z,28.9
2018-03-26T22:45:30.870Z,29.4
2018-03-26T22:46:21.732Z,29.7
2018-03-26T22:47:10.849Z,30.1
2018-03-26T22:48:01.184Z,30.4
2018-03-26T22:48:51.927Z,30.8
2018-03-26T22:49:41.865Z,31.1
2018-03-26T22:50:31.959Z,31.2
2018-03-26T22:51:22.169Z,31
2018-03-26T22:52:11.898Z,30.9
2018-03-26T22:53:02.323Z,30.7
2018-03-26T22:53:52.508Z,30.6
2018-03-26T22:54:42.193Z,30.4
2018-03-26T22:55:32.937Z,30.3
2018-03-26T22:56:21.929Z,30.1
2018-03-26T22:57:12.637Z,29.9
2018-03-26T22:58:01.681Z,29.8
2018-03-26T22:58:51.808Z,29.7
2018-03-26T22:59:42.754Z,29.6
2018-03-26T23:00:33.177Z,29.4
2018-03-26T23:01:22.302Z,29.3
2018-03-26T23:02:13.029Z,29.1
2018-03-26T23:03:02.185Z,29
2018-03-26T23:03:52.205Z,28.9
2018-03-26T23:04:44.105Z,28.7
2018-03-26T23:05:32.840Z,28.6
2018-03-26T23:06:23.477Z,27.7
2018-03-26T23:07:13.346Z,27.2
2018-03-26T23:08:01.866Z,27.1
2018-03-26T23:08:52.669Z,27.3
2018-03-26T23:09:42.632Z,27.4
2018-03-26T23:10:33.536Z,27.8
2018-03-26T23:11:23.228Z,28.2
2018-03-26T23:12:13.102Z,28.6
2018-03-26T23:13:03.220Z,28.9
2018-03-26T23:13:52.645Z,29.3
2018-03-26T23:14:43.019Z,29.8
2018-03-26T23:15:34.689Z,30.1
2018-03-26T23:16:23.237Z,30.4
2018-03-26T23:17:13.738Z,30.8
2018-03-26T23:18:03.236Z,31.1
2018-03-26T23:18:54.535Z,31.2
2018-03-26T23:19:43.457Z,31
2018-03-26T23:20:34.906Z,30.9
2018-03-26T23:21:23.537Z,30.7
2018-03-26T23:22:13.819Z,30.6
2018-03-26T23:23:04.681Z,30.4
2018-03-26T23:23:55.070Z,30.3
2018-03-26T23:24:43.506Z,30.1
2018-03-26T23:25:33.339Z,30
2018-03-26T23:26:24.128Z,29.8
2018-03-26T23:27:14.456Z,29.7
2018-03-26T23:28:04.148Z,29.6
2018-03-26T23:28:54.099Z,29.4
2018-03-26T23:29:45.496Z,29.3
2018-03-26T23:30:34.376Z,29.1
2018-03-26T23:31:23.914Z,29
2018-03-26T23:32:14.384Z,28.9
2018-03-26T23:33:05.813Z,28.8
2018-03-26T23:33:53.889Z,28.6
2018-03-26T23:34:44.545Z,27.7
2018-03-26T23:35:35.213Z,27.3
2018-03-26T23:36:25.638Z,27.1
2018-03-26T23:37:14.686Z,27.3
2018-03-26T23:38:03.999Z,27.5
2018-03-26T23:39:45.976Z,28.2
2018-03-26T23:40:34.925Z,28.6
2018-03-26T23:41:25.617Z,29
2018-03-26T23:42:14.865Z,29.4
2018-03-26T23:43:05.961Z,29.8
2018-03-26T23:43:54.927Z,30.1
2018-03-26T23:44:45.067Z,30.4
2018-03-26T23:45:35.440Z,30.8
2018-03-26T23:46:24.831Z,31.1
2018-03-26T23:47:15.059Z,31.2
2018-03-26T23:48:05.455Z,31.1
2018-03-26T23:48:55.382Z,30.9
2018-03-26T23:49:46.800Z,30.8
2018-03-26T23:50:35.779Z,30.6
2018-03-26T23:51:26.724Z,30.4
2018-03-26T23:52:15.969Z,30.3
2018-03-26T23:53:05.069Z,30.1
2018-03-26T23:53:56.962Z,29.9
2018-03-26T23:54:45.782Z,29.8
2018-03-26T23:55:36.319Z,29.7
2018-03-26T23:56:26.782Z,29.6
2018-03-26T23:57:17.074Z,28.8
2018-03-26T23:58:06.124Z,27.9
2018-03-26T23:58:56.635Z,27.6
2018-03-26T23:59:46.508Z,27.2
